Time;durP1;ratioP1;P1;durP2;ratioP2;P2;SDS_P1;SDS_P2;PMS_P1;PMS_P2;Temp;Humidity;BMP_temperature;BMP_pressure;BME280_temperature;BME280_humidity;BME280_pressure;Samples;Min_cycle;Max_cycle;Signal;HPM_P1;HPM_P2
2022/09/03 00:00:13;;;;;;;2.58;0.80;;;17.30;78.80;;;;;;4993644;28;20045;-72
2022/09/03 00:02:55;;;;;;;3.08;1.00;;;17.20;79.30;;;;;;5001785;28;20038;-73
2022/09/03 00:05:50;;;;;;;5.55;1.10;;;17.20;79.70;;;;;;4990688;28;20096;-72
2022/09/03 00:08:41;;;;;;;3.35;1.00;;;17.20;79.90;;;;;;4979927;28;20054;-72
2022/09/03 00:11:07;;;;;;;3.15;1.08;;;17.10;80.00;;;;;;4983005;28;20081;-72
2022/09/03 00:13:41;;;;;;;3.47;1.00;;;17.00;79.80;;;;;;4990272;28;20807;-72
2022/09/03 00:16:10;;;;;;;2.08;1.10;;;17.00;80.40;;;;;;4999239;28;20037;-73
2022/09/03 00:18:43;;;;;;;8.90;0.80;;;17.00;80.70;;;;;;5003535;28;20072;-73
2022/09/03 00:21:16;;;;;;;5.32;1.08;;;16.90;80.50;;;;;;4982514;28;20073;-73
2022/09/03 00:23:46;;;;;;;4.53;1.33;;;16.90;81.30;;;;;;5002748;28;20046;-73
2022/09/03 00:26:12;;;;;;;4.45;0.90;;;16.90;81.40;;;;;;4986520;28;20045;-73
2022/09/03 00:28:44;;;;;;;4.35;1.00;;;16.80;81.50;;;;;;4983907;28;20159;-73
2022/09/03 00:31:15;;;;;;;2.25;1.30;;;16.80;82.30;;;;;;4985396;28;20057;-73
2022/09/03 00:33:43;;;;;;;3.38;1.05;;;16.70;82.50;;;;;;4991591;28;20042;-73
2022/09/03 00:36:22;;;;;;;1.70;1.00;;;16.70;82.60;;;;;;4985552;28;20069;-73
2022/09/03 00:38:48;;;;;;;3.28;1.42;;;16.70;82.40;;;;;;4986349;28;20448;-73
2022/09/03 00:41:40;;;;;;;4.82;1.10;;;16.60;82.80;;;;;;4986245;28;20121;-73
2022/09/03 00:44:25;;;;;;;4.07;0.90;;;16.60;83.50;;;;;;4997621;28;20038;-73
2022/09/03 00:47:17;;;;;;;1.75;0.80;;;16.60;82.70;;;;;;4984682;28;20057;-73
2022/09/03 00:49:49;;;;;;;;;;;16.50;83.10;;;;;;4989722;28;20065;-73
2022/09/03 00:52:44;;;;;;;8.70;1.00;;;16.50;83.60;;;;;;4989286;28;19971;-73
2022/09/03 00:55:48;;;;;;;3.30;0.88;;;16.50;84.00;;;;;;4996998;28;20056;-73
2022/09/03 00:58:34;;;;;;;3.88;1.00;;;16.40;85.10;;;;;;4966593;28;20057;-73
2022/09/03 01:01:09;;;;;;;2.55;1.00;;;16.40;85.60;;;;;;4987434;28;20049;-73
2022/09/03 01:03:50;;;;;;;2.17;1.00;;;16.40;86.70;;;;;;4999478;28;20049;-73
2022/09/03 01:06:24;;;;;;;6.22;1.10;;;16.30;86.30;;;;;;5007203;28;20026;-73
2022/09/03 01:08:59;;;;;;;1.95;0.75;;;16.30;86.60;;;;;;4987706;28;20030;-73
2022/09/03 01:11:44;;;;;;;1.63;0.82;;;16.20;87.00;;;;;;4990422;28;20038;-73
2022/09/03 01:14:44;;;;;;;2.38;0.80;;;16.20;86.70;;;;;;4991355;28;20589;-73
2022/09/03 01:17:32;;;;;;;2.92;1.05;;;16.20;87.50;;;;;;4999597;28;20412;-73
2022/09/03 01:20:26;;;;;;;2.00;1.00;;;16.10;88.10;;;;;;5002538;28;20419;-73
2022/09/03 01:23:09;;;;;;;4.85;1.13;;;16.10;88.40;;;;;;5010294;28;20046;-73
2022/09/03 01:25:53;;;;;;;;;;;16.00;89.10;;;;;;4990872;28;20033;-73
2022/09/03 01:28:37;;;;;;;1.65;0.90;;;16.00;88.90;;;;;;4996819;28;20012;-73
2022/09/03 01:31:10;;;;;;;2.50;1.08;;;16.00;89.30;;;;;;4988711;28;20120;-73
2022/09/03 01:33:41;;;;;;;0.85;0.77;;;16.00;89.80;;;;;;4988801;28;20140;-73
2022/09/03 01:36:22;;;;;;;5.03;0.85;;;16.00;89.80;;;;;;4990593;28;20177;-73
2022/09/03 01:38:58;;;;;;;1.00;0.90;;;16.00;89.30;;;;;;5007679;28;20503;-73
2022/09/03 01:45:01;;;;;;;2.42;1.02;;;16.00;89.70;;;;;;5004943;28;20496;-73
2022/09/03 01:47:57;;;;;;;3.10;0.90;;;16.00;90.10;;;;;;4996744;28;20077;-73
2022/09/03 01:50:37;;;;;;;2.83;1.02;;;16.00;90.20;;;;;;4988457;28;20573;-73
2022/09/03 01:53:09;;;;;;;3.40;0.88;;;15.90;90.20;;;;;;4991172;28;20533;-73
2022/09/03 01:56:12;;;;;;;1.67;0.90;;;16.00;90.10;;;;;;5005222;28;20045;-73
2022/09/03 01:58:59;;;;;;;2.42;0.80;;;16.00;90.30;;;;;;5007319;28;20505;-73
2022/09/03 02:01:33;;;;;;;2.72;0.80;;;16.00;90.10;;;;;;4987993;28;20067;-73
2022/09/03 02:03:59;;;;;;;2.35;0.70;;;16.00;90.30;;;;;;5005968;28;20459;-73
2022/09/03 02:06:26;;;;;;;1.60;0.80;;;16.00;90.60;;;;;;5006433;28;20049;-73
2022/09/03 02:08:52;;;;;;;3.70;0.90;;;16.00;90.40;;;;;;4990616;28;20034;-73
2022/09/03 02:11:18;;;;;;;1.05;0.77;;;16.00;90.40;;;;;;4992321;28;20049;-73
2022/09/03 02:13:51;;;;;;;3.20;0.98;;;16.00;90.60;;;;;;5006114;28;21794;-73
2022/09/03 02:16:27;;;;;;;4.88;1.00;;;16.00;90.40;;;;;;4989842;28;20088;-73
2022/09/03 02:19:04;;;;;;;3.10;0.98;;;16.00;90.60;;;;;;5006994;28;20540;-73
2022/09/03 02:21:35;;;;;;;1.88;0.80;;;16.10;90.20;;;;;;4971272;28;22731;-73
2022/09/03 02:24:06;;;;;;;2.97;1.00;;;16.00;90.50;;;;;;5004394;28;20566;-73
2022/09/03 02:26:32;;;;;;;3.47;0.80;;;16.00;90.60;;;;;;4989917;28;20041;-73
2022/09/03 02:29:00;;;;;;;4.80;0.90;;;16.10;90.70;;;;;;4989120;28;20504;-73
2022/09/03 02:31:26;;;;;;;1.92;0.75;;;16.10;90.20;;;;;;5006348;28;20045;-73
2022/09/03 02:33:53;;;;;;;5.15;1.13;;;16.10;90.50;;;;;;4989135;28;20129;-73
2022/09/03 02:36:25;;;;;;;2.03;0.88;;;16.10;90.70;;;;;;4990754;28;20076;-73
2022/09/03 02:38:50;;;;;;;0.73;0.60;;;16.20;90.60;;;;;;4990217;28;20029;-73
2022/09/03 02:41:16;;;;;;;3.38;0.98;;;16.20;90.40;;;;;;4988610;28;20460;-73
2022/09/03 02:44:04;;;;;;;6.07;0.77;;;16.30;90.60;;;;;;4988661;28;20038;-73
2022/09/03 02:46:58;;;;;;;1.98;0.88;;;16.30;90.60;;;;;;4988827;28;20053;-73
2022/09/03 02:49:23;;;;;;;2.53;0.82;;;16.30;90.70;;;;;;4997299;28;20054;-73
2022/09/03 02:51:49;;;;;;;1.52;0.80;;;16.30;90.80;;;;;;4988344;28;20044;-73
2022/09/03 02:54:15;;;;;;;4.40;0.80;;;16.30;90.50;;;;;;5004680;28;20042;-73
2022/09/03 02:56:40;;;;;;;1.63;0.82;;;16.30;90.20;;;;;;4983898;28;20038;-73
2022/09/03 02:59:08;;;;;;;1.35;0.70;;;16.40;90.20;;;;;;5005344;28;20057;-73
2022/09/03 03:01:35;;;;;;;1.00;0.65;;;16.40;90.20;;;;;;4989155;28;20129;-73
2022/09/03 03:04:01;;;;;;;0.95;0.73;;;16.40;90.20;;;;;;4989003;28;20180;-73
2022/09/03 03:06:27;;;;;;;1.02;0.80;;;16.40;90.10;;;;;;4990798;28;20168;-73
2022/09/03 03:08:54;;;;;;;4.57;0.98;;;16.50;90.10;;;;;;5005861;28;20057;-73
2022/09/03 03:11:21;;;;;;;1.23;0.80;;;16.50;90.20;;;;;;4989685;28;20050;-73
2022/09/03 03:13:47;;;;;;;3.45;0.77;;;16.40;90.20;;;;;;4989626;28;20045;-73
2022/09/03 03:16:15;;;;;;;4.25;0.93;;;16.40;89.80;;;;;;4972264;28;20034;-73
2022/09/03 03:18:42;;;;;;;2.15;0.88;;;16.50;89.50;;;;;;4990982;28;20397;-73
2022/09/03 03:21:10;;;;;;;1.15;0.70;;;16.40;89.60;;;;;;5004325;28;20061;-73
2022/09/03 03:23:37;;;;;;;2.83;0.82;;;16.40;90.00;;;;;;4987584;28;20492;-73
2022/09/03 03:26:14;;;;;;;0.98;0.60;;;16.40;89.80;;;;;;5005765;28;20046;-73
2022/09/03 03:28:41;;;;;;;2.80;0.90;;;16.40;89.40;;;;;;4989125;28;20193;-73
2022/09/03 03:31:10;;;;;;;2.53;0.80;;;16.40;89.70;;;;;;4988193;28;20128;-73
2022/09/03 03:33:36;;;;;;;3.10;0.90;;;16.40;89.40;;;;;;4987441;28;20034;-73
2022/09/03 03:36:11;;;;;;;2.92;0.90;;;16.40;89.40;;;;;;4989949;28;20041;-73
2022/09/03 03:38:37;;;;;;;3.00;0.80;;;16.40;89.80;;;;;;5004017;28;20049;-73
2022/09/03 03:41:24;;;;;;;2.47;0.85;;;16.40;89.70;;;;;;4989800;28;21534;-73
2022/09/03 03:43:54;;;;;;;1.52;0.60;;;16.30;89.50;;;;;;4984739;28;20405;-73
2022/09/03 03:46:21;;;;;;;3.25;1.00;;;16.40;90.00;;;;;;4989370;28;20108;-73
2022/09/03 03:48:48;;;;;;;2.22;0.90;;;16.30;90.10;;;;;;4985417;28;20470;-73
2022/09/03 03:51:14;;;;;;;4.00;0.80;;;16.30;90.10;;;;;;5002392;28;22519;-73
2022/09/03 03:53:40;;;;;;;2.03;0.95;;;16.30;90.20;;;;;;4984735;28;20033;-73
2022/09/03 03:56:09;;;;;;;2.30;0.80;;;16.20;90.30;;;;;;4987306;28;20396;-73
2022/09/03 03:58:36;;;;;;;3.17;1.00;;;16.20;90.10;;;;;;5002362;28;20593;-73
2022/09/03 04:01:13;;;;;;;3.13;1.00;;;16.20;90.10;;;;;;4986117;28;20046;-73
2022/09/03 04:03:40;;;;;;;6.82;1.00;;;16.30;90.10;;;;;;4989896;28;21864;-73
2022/09/03 04:06:06;;;;;;;1.95;1.08;;;16.20;90.30;;;;;;4989197;28;20069;-73
2022/09/03 04:08:38;;;;;;;1.70;0.95;;;16.20;90.60;;;;;;4988528;28;20385;-73
2022/09/03 04:11:06;;;;;;;5.82;1.00;;;16.20;90.50;;;;;;4988408;28;20411;-73
2022/09/03 04:13:34;;;;;;;3.22;0.90;;;16.10;90.40;;;;;;4978887;28;20054;-73
2022/09/03 04:16:08;;;;;;;1.00;0.80;;;16.10;90.50;;;;;;4992376;28;20108;-73
2022/09/03 04:18:34;;;;;;;1.75;0.93;;;16.00;90.60;;;;;;4987227;28;20033;-73
2022/09/03 04:21:11;;;;;;;3.42;1.17;;;16.00;90.80;;;;;;5004828;28;20030;-73
2022/09/03 04:23:42;;;;;;;1.23;0.80;;;16.00;90.70;;;;;;4984682;28;20069;-73
2022/09/03 04:26:10;;;;;;;1.30;0.85;;;15.90;91.00;;;;;;4997955;28;20054;-73
2022/09/03 04:28:36;;;;;;;1.55;0.88;;;15.90;91.20;;;;;;4987342;28;20164;-73
2022/09/03 04:31:04;;;;;;;2.97;1.00;;;15.80;90.90;;;;;;4992685;28;20132;-73
2022/09/03 04:33:31;;;;;;;1.75;0.82;;;15.80;90.80;;;;;;5008266;28;20046;-73
2022/09/03 04:36:10;;;;;;;3.10;0.93;;;15.80;91.20;;;;;;4991276;28;20076;-73
2022/09/03 04:38:41;;;;;;;3.33;0.95;;;15.80;91.40;;;;;;4991598;28;20052;-73
2022/09/03 04:41:08;;;;;;;1.42;0.93;;;15.70;91.60;;;;;;5007974;28;20092;-73
2022/09/03 04:43:34;;;;;;;2.17;0.90;;;15.60;91.80;;;;;;4991372;28;20034;-73
2022/09/03 04:46:03;;;;;;;1.83;0.80;;;15.60;91.80;;;;;;4990524;28;20479;-73
2022/09/03 04:48:30;;;;;;;2.88;0.93;;;15.60;92.20;;;;;;4989983;28;20041;-73
2022/09/03 04:51:04;;;;;;;4.00;1.08;;;15.50;92.60;;;;;;4974566;28;20120;-73
2022/09/03 04:53:30;;;;;;;5.00;0.93;;;15.50;92.80;;;;;;4992664;28;20132;-73
2022/09/03 04:55:56;;;;;;;4.32;0.88;;;15.40;93.10;;;;;;4989088;28;20049;-73
2022/09/03 04:58:22;;;;;;;5.18;0.90;;;15.40;93.30;;;;;;4989741;28;20595;-73
2022/09/03 05:00:47;;;;;;;3.05;0.90;;;15.30;93.40;;;;;;4989944;28;20382;-73
2022/09/03 05:03:13;;;;;;;0.80;0.80;;;15.30;93.60;;;;;;4992025;28;20063;-73
2022/09/03 05:05:39;;;;;;;4.28;0.90;;;15.30;93.90;;;;;;4990711;28;20037;-73
2022/09/03 05:08:05;;;;;;;1.58;1.00;;;15.20;93.90;;;;;;5008543;28;20045;-73
2022/09/03 05:10:31;;;;;;;2.42;0.93;;;15.20;94.00;;;;;;4989960;28;20052;-73
2022/09/03 05:13:02;;;;;;;2.50;0.90;;;15.20;94.00;;;;;;4989168;28;20054;-73
2022/09/03 05:15:30;;;;;;;2.90;0.90;;;15.20;94.10;;;;;;4991488;28;20042;-73
2022/09/03 05:17:58;;;;;;;1.92;0.93;;;15.20;94.20;;;;;;4990636;28;20096;-73
2022/09/03 05:20:24;;;;;;;3.20;1.30;;;15.20;94.40;;;;;;4989313;28;20042;-73
2022/09/03 05:22:50;;;;;;;9.00;1.10;;;15.20;94.60;;;;;;5008846;28;20037;-73
2022/09/03 05:25:16;;;;;;;2.72;1.10;;;15.20;94.60;;;;;;4989959;28;20048;-73
2022/09/03 05:27:42;;;;;;;3.97;0.98;;;15.20;94.50;;;;;;5006615;28;20037;-73
2022/09/03 05:30:08;;;;;;;7.22;1.20;;;15.30;94.60;;;;;;5007680;28;20073;-73
2022/09/03 05:32:34;;;;;;;1.73;0.82;;;15.30;94.50;;;;;;4987184;28;20054;-73
2022/09/03 05:35:00;;;;;;;5.68;1.15;;;15.30;94.90;;;;;;4990198;28;20049;-73
2022/09/03 05:37:26;;;;;;;4.07;1.08;;;15.30;95.10;;;;;;5007687;28;20061;-73
2022/09/03 05:39:52;;;;;;;2.22;0.80;;;15.40;95.30;;;;;;4990073;28;20080;-73
2022/09/03 05:42:18;;;;;;;3.90;0.85;;;15.40;95.20;;;;;;5007298;28;20033;-73
2022/09/03 05:44:44;;;;;;;3.17;1.05;;;15.40;95.10;;;;;;5009878;28;20057;-73
2022/09/03 05:47:10;;;;;;;3.97;1.35;;;15.40;95.40;;;;;;4989767;28;20046;-73
2022/09/03 05:49:36;;;;;;;2.03;1.05;;;15.40;95.20;;;;;;4990495;28;20034;-73
2022/09/03 05:52:02;;;;;;;4.05;1.02;;;15.50;95.20;;;;;;4989105;28;20037;-73
2022/09/03 05:54:27;;;;;;;9.65;1.33;;;15.50;95.40;;;;;;4982930;28;20044;-73
2022/09/03 05:56:53;;;;;;;4.03;1.08;;;15.60;95.30;;;;;;4987586;28;20045;-73
2022/09/03 05:59:19;;;;;;;2.78;1.05;;;15.60;95.10;;;;;;4991449;28;20046;-73
2022/09/03 06:01:45;;;;;;;3.72;1.00;;;15.60;95.20;;;;;;5002481;28;20064;-73
2022/09/03 06:04:13;;;;;;;2.63;1.08;;;15.60;95.20;;;;;;4988438;28;20053;-73
2022/09/03 06:06:44;;;;;;;5.10;1.15;;;15.70;95.20;;;;;;5002079;28;20066;-73
2022/09/03 06:09:12;;;;;;;6.05;1.30;;;15.80;95.20;;;;;;5001076;28;20484;-71
2022/09/03 06:11:39;;;;;;;2.20;1.13;;;15.80;95.20;;;;;;4984932;28;20104;-73
2022/09/03 06:14:07;;;;;;;6.70;1.30;;;15.90;95.00;;;;;;4990449;28;20057;-73
2022/09/03 06:16:37;;;;;;;4.25;1.25;;;15.90;94.80;;;;;;4998291;28;20049;-73
2022/09/03 06:19:08;;;;;;;4.90;1.50;;;16.00;94.60;;;;;;4983099;28;20064;-73
2022/09/03 06:21:36;;;;;;;1.83;1.13;;;16.00;94.90;;;;;;4983668;28;20484;-73
2022/09/03 06:24:02;;;;;;;2.38;1.30;;;16.10;95.10;;;;;;5003281;28;20056;-73
2022/09/03 06:26:28;;;;;;;3.90;1.10;;;16.10;94.40;;;;;;4982428;28;20508;-73
2022/09/03 06:28:55;;;;;;;6.03;1.10;;;16.10;94.60;;;;;;5001250;28;20030;-73
2022/09/03 06:31:22;;;;;;;2.42;1.30;;;16.10;94.30;;;;;;4985032;28;20050;-73
2022/09/03 06:33:47;;;;;;;2.47;1.30;;;16.10;94.60;;;;;;4985767;28;20496;-73
2022/09/03 06:36:16;;;;;;;7.95;1.30;;;16.20;94.60;;;;;;4988669;28;20049;-73
2022/09/03 06:38:43;;;;;;;3.80;1.40;;;16.10;94.40;;;;;;5001476;28;20065;-73
2022/09/03 06:41:23;;;;;;;2.58;1.20;;;16.20;94.30;;;;;;4985584;28;20094;-73
2022/09/03 06:43:53;;;;;;;4.43;1.67;;;16.20;94.40;;;;;;4987145;28;20578;-73
2022/09/03 06:46:21;;;;;;;6.38;1.45;;;16.20;94.60;;;;;;4994612;28;20475;-73
2022/09/03 06:48:47;;;;;;;3.50;1.42;;;16.20;94.40;;;;;;4982899;28;20065;-70
2022/09/03 06:51:15;;;;;;;5.32;1.02;;;16.20;94.60;;;;;;4994836;28;20050;-73
2022/09/03 06:53:43;;;;;;;3.45;1.38;;;16.20;94.50;;;;;;4991159;28;20082;-73
2022/09/03 06:56:11;;;;;;;4.70;1.40;;;16.20;94.60;;;;;;5010873;28;20068;-73
2022/09/03 06:58:43;;;;;;;5.10;1.20;;;16.30;94.70;;;;;;5003604;28;20041;-73
2022/09/03 07:01:18;;;;;;;3.25;1.20;;;16.30;94.90;;;;;;4986115;28;20034;-73
2022/09/03 07:03:45;;;;;;;4.75;1.35;;;16.30;95.20;;;;;;4987603;28;20054;-73
2022/09/03 07:06:16;;;;;;;3.05;1.13;;;16.40;95.10;;;;;;4989861;28;20054;-73
2022/09/03 07:08:43;;;;;;;13.25;1.80;;;16.50;94.70;;;;;;4990057;28;20065;-74
2022/09/03 07:11:11;;;;;;;5.88;1.30;;;16.50;94.40;;;;;;4985892;28;20046;-72
2022/09/03 07:13:43;;;;;;;1.88;1.30;;;16.60;94.30;;;;;;4982866;28;20374;-73
2022/09/03 07:16:14;;;;;;;2.33;1.27;;;16.60;94.20;;;;;;5004230;28;20041;-72
2022/09/03 07:18:40;;;;;;;4.00;1.70;;;16.70;94.20;;;;;;4987257;28;20092;-73
2022/09/03 07:21:08;;;;;;;7.18;1.10;;;16.80;94.10;;;;;;4995591;28;20038;-73
2022/09/03 07:23:36;;;;;;;4.72;1.30;;;16.90;94.30;;;;;;5013978;28;20054;-73
2022/09/03 07:26:07;;;;;;;2.83;1.10;;;17.00;94.30;;;;;;4989561;28;20100;-73
2022/09/03 07:28:35;;;;;;;2.95;1.13;;;17.10;94.20;;;;;;4981847;28;20042;-73
2022/09/03 07:31:04;;;;;;;3.55;1.20;;;17.20;94.00;;;;;;5012245;28;20046;-73
2022/09/03 07:33:30;;;;;;;4.05;1.30;;;17.30;93.70;;;;;;4996970;28;20049;-73
2022/09/03 07:36:01;;;;;;;7.13;1.20;;;17.50;93.20;;;;;;4997799;28;20095;-73
2022/09/03 07:38:26;;;;;;;2.10;1.10;;;17.50;92.80;;;;;;5007691;28;20043;-74
2022/09/03 07:40:58;;;;;;;4.47;1.30;;;17.70;92.80;;;;;;4998695;28;20046;-73
2022/09/03 07:43:26;;;;;;;4.68;1.60;;;17.80;92.50;;;;;;4998100;28;20088;-73
2022/09/03 07:45:53;;;;;;;4.03;1.00;;;17.90;92.40;;;;;;4993937;28;20034;-73
2022/09/03 07:48:19;;;;;;;2.15;1.20;;;18.00;92.10;;;;;;4993143;28;20080;-73
2022/09/03 07:50:46;;;;;;;6.15;1.10;;;18.10;91.90;;;;;;4998033;28;20069;-73
2022/09/03 07:53:12;;;;;;;4.13;1.10;;;18.20;91.80;;;;;;4989772;28;20042;-73
2022/09/03 07:55:38;;;;;;;5.35;1.08;;;18.30;91.90;;;;;;5012890;28;20121;-73
2022/09/03 07:58:04;;;;;;;3.88;1.23;;;18.40;92.00;;;;;;5025321;28;20556;-73
2022/09/03 08:00:32;;;;;;;1.50;1.00;;;18.50;91.40;;;;;;5000130;28;20049;-73
2022/09/03 08:03:04;;;;;;;2.17;1.05;;;18.60;91.20;;;;;;4995810;28;20050;-73
2022/09/03 08:05:32;;;;;;;3.15;1.25;;;18.70;91.00;;;;;;4981196;28;20045;-73
2022/09/03 08:08:00;;;;;;;4.85;1.10;;;18.80;90.80;;;;;;4996100;28;20048;-73
2022/09/03 08:10:29;;;;;;;1.85;1.27;;;18.90;90.60;;;;;;4997141;28;20038;-72
2022/09/03 08:12:58;;;;;;;2.50;1.45;;;19.00;90.40;;;;;;4990727;28;20047;-72
2022/09/03 08:15:25;;;;;;;3.97;1.10;;;19.20;89.60;;;;;;5013564;28;20034;-72
2022/09/03 08:17:51;;;;;;;5.70;1.20;;;19.30;90.10;;;;;;5014486;28;20492;-73
2022/09/03 08:20:16;;;;;;;3.17;1.20;;;19.40;90.30;;;;;;5001259;28;20040;-73
2022/09/03 08:22:43;;;;;;;5.47;0.93;;;19.60;90.10;;;;;;5016024;28;20112;-72
2022/09/03 08:25:08;;;;;;;8.45;1.23;;;19.70;88.00;;;;;;4996795;28;20069;-73
2022/09/03 08:27:34;;;;;;;7.80;1.30;;;19.90;88.20;;;;;;5014692;28;20060;-72
2022/09/03 08:30:00;;;;;;;1.73;1.27;;;20.00;87.30;;;;;;4991526;28;20212;-72
2022/09/03 08:32:26;;;;;;;4.95;1.20;;;20.10;87.10;;;;;;4994577;28;20044;-72
2022/09/03 08:34:51;;;;;;;2.33;1.02;;;20.20;86.50;;;;;;4995310;28;20120;-72
2022/09/03 08:37:17;;;;;;;4.40;1.10;;;20.30;85.00;;;;;;4993201;28;20481;-72
2022/09/03 08:39:44;;;;;;;1.77;1.00;;;20.40;85.80;;;;;;4997168;28;20091;-72
2022/09/03 08:42:17;;;;;;;3.50;1.02;;;20.50;85.70;;;;;;4999038;28;20042;-72
2022/09/03 08:44:52;;;;;;;4.28;1.10;;;20.70;84.20;;;;;;4991893;28;20049;-72
2022/09/03 08:47:45;;;;;;;5.72;1.10;;;20.80;83.90;;;;;;5005561;28;20100;-72
2022/09/03 08:50:34;;;;;;;2.15;0.98;;;20.90;83.90;;;;;;4992648;28;20069;-72
2022/09/03 08:53:21;;;;;;;2.75;1.10;;;21.10;82.70;;;;;;4993237;28;20038;-73
2022/09/03 08:56:09;;;;;;;3.95;1.00;;;21.20;82.80;;;;;;4997447;28;20116;-72
2022/09/03 08:58:42;;;;;;;2.30;1.23;;;21.40;81.80;;;;;;5012039;28;20118;-72
2022/09/03 09:01:10;;;;;;;1.63;1.10;;;21.50;81.60;;;;;;5013383;28;20038;-73
2022/09/03 09:03:44;;;;;;;1.52;1.05;;;21.60;80.30;;;;;;4994981;28;20092;-73
2022/09/03 09:06:32;;;;;;;4.38;1.17;;;21.70;81.20;;;;;;5010740;28;20045;-73
2022/09/03 09:09:25;;;;;;;3.97;1.10;;;21.90;79.30;;;;;;5017377;28;20062;-73
2022/09/03 09:12:00;;;;;;;3.22;1.33;;;22.00;79.00;;;;;;4997793;28;20038;-73
2022/09/03 09:15:04;;;;;;;3.05;1.10;;;22.10;77.90;;;;;;4996205;28;20050;-73
2022/09/03 09:17:52;;;;;;;5.30;1.00;;;22.30;77.00;;;;;;4987395;28;20133;-73
2022/09/03 09:20:23;;;;;;;3.42;1.17;;;22.40;77.40;;;;;;4986064;28;20037;-73
2022/09/03 09:23:03;;;;;;;8.18;1.10;;;22.50;77.20;;;;;;5015398;28;20037;-73
2022/09/03 09:25:30;;;;;;;3.28;1.02;;;22.70;76.30;;;;;;4977126;28;20076;-73
2022/09/03 09:28:00;;;;;;;3.35;1.00;;;22.80;74.30;;;;;;4991053;28;20033;-73
2022/09/03 09:30:28;;;;;;;4.50;1.10;;;22.90;74.30;;;;;;4990406;28;20125;-73
2022/09/03 09:32:55;;;;;;;6.13;1.02;;;23.00;73.70;;;;;;5011103;28;20053;-73
2022/09/03 09:35:21;;;;;;;5.85;1.20;;;23.10;73.60;;;;;;4995825;28;20175;-73
2022/09/03 09:37:52;;;;;;;3.17;0.90;;;23.20;73.40;;;;;;4995738;28;20603;-73
2022/09/03 09:40:55;;;;;;;3.08;1.13;;;23.40;73.00;;;;;;5006016;28;20034;-73
2022/09/03 09:43:21;;;;;;;4.45;1.00;;;23.60;71.90;;;;;;4986879;28;20050;-73
2022/09/03 09:45:50;;;;;;;8.98;1.27;;;23.70;71.30;;;;;;4995526;28;20103;-73
2022/09/03 09:48:30;;;;;;;6.80;1.10;;;23.80;70.40;;;;;;4995619;28;20091;-73
2022/09/03 09:51:09;;;;;;;3.97;0.90;;;24.00;69.60;;;;;;4978669;28;20050;-73
2022/09/03 09:53:35;;;;;;;5.20;1.20;;;24.10;70.40;;;;;;4994853;28;20546;-73
2022/09/03 09:56:03;;;;;;;1.23;0.77;;;24.20;69.30;;;;;;4990840;28;20125;-73
2022/09/03 09:58:32;;;;;;;3.85;1.10;;;24.40;67.60;;;;;;4997897;28;20095;-73
2022/09/03 10:01:11;;;;;;;6.60;1.10;;;24.50;66.90;;;;;;4988424;28;20038;-73
2022/09/03 10:03:49;;;;;;;8.00;1.00;;;24.60;66.40;;;;;;4999688;28;20046;-73
2022/09/03 10:09:18;;;;;;;3.58;1.10;;;24.90;67.30;;;;;;4996423;28;20049;-73
2022/09/03 10:12:04;;;;;;;4.72;1.13;;;25.00;65.30;;;;;;5004970;28;20125;-73
2022/09/03 10:14:38;;;;;;;4.63;1.05;;;25.10;64.80;;;;;;4990767;28;20037;-73
2022/09/03 10:17:32;;;;;;;3.28;1.05;;;25.30;64.10;;;;;;4997617;28;20133;-73
2022/09/03 10:20:32;;;;;;;4.35;1.02;;;25.60;63.70;;;;;;4957722;28;20058;-73
2022/09/03 10:23:03;;;;;;;6.18;1.02;;;25.70;63.90;;;;;;4998096;28;20052;-71
2022/09/03 10:25:54;;;;;;;4.05;0.85;;;25.90;62.00;;;;;;4992197;28;20046;-73
2022/09/03 10:28:29;;;;;;;1.52;0.80;;;26.00;62.90;;;;;;4995677;28;20045;-73
2022/09/03 10:31:27;;;;;;;6.03;0.95;;;26.30;62.00;;;;;;4981202;28;20044;-73
2022/09/03 10:34:09;;;;;;;3.10;1.10;;;26.50;62.40;;;;;;4991776;28;20121;-73
2022/09/03 10:37:00;;;;;;;3.67;1.00;;;26.60;59.70;;;;;;4983456;28;20046;-73
2022/09/03 10:39:55;;;;;;;3.17;0.85;;;26.80;59.80;;;;;;4992983;28;20040;-73
2022/09/03 10:42:50;;;;;;;4.15;0.90;;;27.00;59.30;;;;;;5006922;28;20033;-73
2022/09/03 10:45:34;;;;;;;8.07;1.15;;;27.20;60.00;;;;;;5011249;28;20053;-72
2022/09/03 10:48:22;;;;;;;1.08;0.90;;;27.40;58.70;;;;;;4991891;28;20034;-72
2022/09/03 10:50:51;;;;;;;5.10;0.90;;;27.70;56.50;;;;;;4992894;28;20456;-72
2022/09/03 10:53:23;;;;;;;2.45;0.88;;;27.80;56.70;;;;;;4964496;28;20038;-73
2022/09/03 10:55:56;;;;;;;2.30;1.00;;;28.00;56.50;;;;;;4994414;28;20041;-72
2022/09/03 10:58:59;;;;;;;2.05;0.90;;;28.10;55.70;;;;;;4991669;28;20393;-73
2022/09/03 11:01:48;;;;;;;5.70;0.95;;;28.20;54.90;;;;;;5009639;28;20193;-73
2022/09/03 11:04:32;;;;;;;1.75;0.80;;;28.40;53.00;;;;;;4997961;28;20041;-73
2022/09/03 11:07:04;;;;;;;7.00;1.20;;;28.50;52.70;;;;;;4978426;28;20050;-73
2022/09/03 11:09:36;;;;;;;2.05;0.80;;;28.60;52.80;;;;;;4994688;28;20053;-73
2022/09/03 11:12:14;;;;;;;3.40;0.80;;;28.70;53.10;;;;;;4990344;28;20046;-73
2022/09/03 11:14:43;;;;;;;2.55;0.80;;;28.90;52.10;;;;;;4993147;28;20030;-73
2022/09/03 11:17:23;;;;;;;3.60;0.90;;;29.00;51.80;;;;;;5011943;28;20048;-72
2022/09/03 11:19:56;;;;;;;1.48;1.08;;;29.10;51.80;;;;;;4991214;28;20038;-72
2022/09/03 11:22:23;;;;;;;3.85;0.93;;;29.20;49.90;;;;;;4992435;28;20038;-73
2022/09/03 11:24:56;;;;;;;3.45;0.90;;;29.30;49.60;;;;;;4996394;28;20042;-73
2022/09/03 11:27:40;;;;;;;3.67;0.73;;;29.30;49.40;;;;;;5004912;28;20057;-73
2022/09/03 11:30:13;;;;;;;6.07;0.95;;;29.40;48.20;;;;;;4997381;28;20041;-73
2022/09/03 11:32:45;;;;;;;1.35;0.82;;;29.40;48.40;;;;;;4993083;28;20057;-72
2022/09/03 11:35:36;;;;;;;4.20;0.93;;;29.50;48.30;;;;;;4994344;28;20081;-73
2022/09/03 11:38:05;;;;;;;1.83;0.90;;;29.50;48.10;;;;;;5007380;28;20048;-73
2022/09/03 11:40:36;;;;;;;3.63;0.80;;;29.50;47.50;;;;;;4995776;28;20034;-73
2022/09/03 11:43:23;;;;;;;1.95;0.63;;;29.60;48.20;;;;;;5013234;28;20053;-73
2022/09/03 11:46:01;;;;;;;6.43;1.10;;;29.70;48.10;;;;;;4993042;28;20042;-73
2022/09/03 11:48:38;;;;;;;2.42;0.80;;;29.70;47.10;;;;;;4989661;28;20041;-73
2022/09/03 11:51:03;;;;;;;4.20;1.00;;;29.70;48.10;;;;;;5012741;28;20046;-73
2022/09/03 11:53:34;;;;;;;5.68;1.15;;;29.80;47.00;;;;;;4988829;28;20034;-73
2022/09/03 11:56:16;;;;;;;2.30;0.80;;;29.70;46.90;;;;;;5012822;28;20405;-72
2022/09/03 11:58:42;;;;;;;1.23;0.88;;;29.60;46.80;;;;;;4985449;28;20048;-73
2022/09/03 12:01:10;;;;;;;1.08;0.80;;;29.60;46.50;;;;;;5002749;28;20080;-73
2022/09/03 12:03:38;;;;;;;1.52;0.70;;;29.70;46.70;;;;;;4994291;28;20042;-73
2022/09/03 12:06:38;;;;;;;1.63;0.93;;;29.70;46.50;;;;;;4994765;28;20049;-73
2022/09/03 12:09:10;;;;;;;13.75;1.00;;;29.80;46.60;;;;;;4982050;28;20057;-72
2022/09/03 12:11:45;;;;;;;7.38;1.13;;;29.90;46.70;;;;;;4993164;28;20103;-73
2022/09/03 12:14:20;;;;;;;4.68;0.90;;;30.00;45.90;;;;;;4998463;28;20052;-73
2022/09/03 12:17:10;;;;;;;4.50;0.93;;;30.00;44.80;;;;;;5002557;28;20116;-73
2022/09/03 12:19:57;;;;;;;3.28;0.75;;;30.10;44.80;;;;;;4989467;28;20045;-72
2022/09/03 12:22:27;;;;;;;5.82;0.80;;;30.10;44.90;;;;;;5010561;28;20030;-73
2022/09/03 12:24:53;;;;;;;3.08;0.80;;;30.20;45.20;;;;;;4987262;28;20052;-72
2022/09/03 12:27:23;;;;;;;10.68;1.05;;;30.40;45.60;;;;;;4991169;28;20046;-72
2022/09/03 12:29:54;;;;;;;4.30;0.90;;;30.50;44.80;;;;;;4988360;28;20076;-72
2022/09/03 12:32:20;;;;;;;2.88;0.70;;;30.60;45.20;;;;;;4987721;28;20097;-72
2022/09/03 12:34:46;;;;;;;2.47;0.80;;;30.80;45.50;;;;;;5008548;28;20046;-72
2022/09/03 12:37:24;;;;;;;5.13;0.90;;;31.00;44.60;;;;;;4993549;28;20136;-73
2022/09/03 12:39:55;;;;;;;5.18;0.77;;;31.20;43.90;;;;;;4992876;28;20038;-72
2022/09/03 12:42:31;;;;;;;3.88;0.82;;;31.20;43.20;;;;;;5007102;28;20096;-72
2022/09/03 12:45:14;;;;;;;0.93;0.70;;;31.20;43.30;;;;;;4994602;28;20037;-73
2022/09/03 12:47:41;;;;;;;5.25;0.90;;;31.40;43.20;;;;;;4986856;28;20042;-72
2022/09/03 12:50:16;;;;;;;3.50;0.70;;;31.40;42.90;;;;;;4992956;28;20046;-72
2022/09/03 12:52:48;;;;;;;20.48;1.67;;;31.50;43.10;;;;;;4974798;28;20041;-72
2022/09/03 12:55:32;;;;;;;5.35;0.70;;;31.50;43.00;;;;;;5003608;28;20049;-73
2022/09/03 12:57:58;;;;;;;5.57;0.77;;;31.50;43.60;;;;;;5001690;28;20041;-73
2022/09/03 13:00:24;;;;;;;3.58;0.80;;;31.50;43.20;;;;;;4983264;28;20388;-73
2022/09/03 13:02:53;;;;;;;5.53;1.13;;;31.50;43.50;;;;;;5004400;28;20040;-73
2022/09/03 13:05:35;;;;;;;1.60;0.80;;;31.50;42.40;;;;;;4987106;28;20041;-73
2022/09/03 13:08:04;;;;;;;2.22;0.70;;;31.50;42.60;;;;;;4988021;28;20042;-73
2022/09/03 13:10:40;;;;;;;7.97;0.80;;;31.50;42.40;;;;;;4986694;28;20034;-72
2022/09/03 13:13:28;;;;;;;2.63;0.90;;;31.60;43.40;;;;;;4971167;28;20589;-72
2022/09/03 13:16:20;;;;;;;1.88;0.80;;;31.60;42.40;;;;;;4950963;28;20060;-72
2022/09/03 13:19:01;;;;;;;4.10;0.90;;;31.80;42.50;;;;;;4986334;28;20045;-72
2022/09/03 13:21:26;;;;;;;7.27;0.90;;;31.90;42.40;;;;;;4975934;28;20073;-72
2022/09/03 13:24:18;;;;;;;1.90;0.60;;;32.10;41.80;;;;;;4989791;28;20129;-73